createdAt,value
2018-12-10T00:00:20.160Z,100347.64
2018-12-10T00:03:52.182Z,100348.92
2018-12-10T00:06:21.289Z,100346.88
2018-12-10T00:08:50.608Z,100345.55
2018-12-10T00:11:19.668Z,100347.43
2018-12-10T00:13:48.900Z,100347.51
2018-12-10T00:16:18.149Z,100347.84
2018-12-10T00:18:47.401Z,100359.01
2018-12-10T00:21:16.563Z,100355.27
2018-12-10T00:23:45.943Z,100363.59
2018-12-10T00:26:15.071Z,100364.26
2018-12-10T00:28:44.313Z,100372.30
2018-12-10T00:31:13.559Z,100373.13
2018-12-10T00:33:42.805Z,100389.25
2018-12-10T00:36:11.929Z,100389.19
2018-12-10T00:38:42.791Z,100396.31
2018-12-10T00:41:11.695Z,100394.67
2018-12-10T00:43:40.658Z,100398.52
2018-12-10T00:46:09.582Z,100408.52
2018-12-10T00:48:38.509Z,100410.15
2018-12-10T00:51:07.412Z,100419.73
2018-12-10T00:53:36.342Z,100409.63
2018-12-10T00:56:05.240Z,100411.67
2018-12-10T00:58:34.168Z,100415.84
2018-12-10T01:01:03.066Z,100417.65
2018-12-10T01:03:31.972Z,100409.33
2018-12-10T01:06:00.855Z,100416.80
2018-12-10T01:08:29.817Z,100407.83
2018-12-10T01:10:58.680Z,100411.80
2018-12-10T01:13:27.761Z,100409.30
2018-12-10T01:15:56.663Z,100414.43
2018-12-10T01:21:07.773Z,100425.38
2018-12-10T01:23:36.732Z,100429.20
2018-12-10T01:26:05.673Z,100419.30
2018-12-10T01:28:34.671Z,100434.46
2018-12-10T01:31:03.595Z,100435.27
2018-12-10T01:33:32.586Z,100451.38
2018-12-10T01:36:01.532Z,100448.56
2018-12-10T01:38:30.462Z,100453.81
2018-12-10T01:40:59.431Z,100450.36
2018-12-10T01:43:28.391Z,100454.38
2018-12-10T01:45:57.364Z,100469.94
2018-12-10T01:48:26.275Z,100457.07
2018-12-10T01:50:55.290Z,100467.41
2018-12-10T01:53:24.239Z,100471.05
2018-12-10T01:55:53.199Z,100484.50
2018-12-10T01:58:22.100Z,100493.44
2018-12-10T02:00:51.063Z,100480.58
2018-12-10T02:03:19.999Z,100504.73
2018-12-10T02:05:49.030Z,100503.73
2018-12-10T02:08:17.959Z,100501.27
2018-12-10T02:10:46.931Z,100496.64
2018-12-10T02:13:15.853Z,100497.66
2018-12-10T02:15:44.824Z,100492.80
2018-12-10T02:18:13.725Z,100492.84
2018-12-10T02:20:42.731Z,100508.69
2018-12-10T02:23:11.635Z,100503.31
2018-12-10T02:25:40.613Z,100519.58
2018-12-10T02:28:09.541Z,100518.30
2018-12-10T02:30:38.485Z,100530.78
2018-12-10T02:33:07.382Z,100535.09
2018-12-10T02:35:36.319Z,100535.27
2018-12-10T02:38:05.235Z,100517.30
2018-12-10T02:40:34.259Z,100537.38
2018-12-10T02:43:03.156Z,100545.73
2018-12-10T02:45:32.099Z,100546.20
2018-12-10T02:48:01.089Z,100538.95
2018-12-10T02:50:30.031Z,100545.81
2018-12-10T02:52:58.969Z,100541.24
2018-12-10T02:55:27.912Z,100549.53
2018-12-10T02:57:56.898Z,100556.41
2018-12-10T03:00:25.880Z,100559.75
2018-12-10T03:02:54.827Z,100562.25
2018-12-10T03:05:23.741Z,100558.31
2018-12-10T03:07:52.695Z,100555.20
2018-12-10T03:10:21.661Z,100564.17
2018-12-10T03:12:50.653Z,100573.23
2018-12-10T03:15:19.599Z,100582.03
2018-12-10T03:17:48.552Z,100571.23
2018-12-10T03:20:17.528Z,100587.84
2018-12-10T03:22:46.522Z,100588.46
2018-12-10T03:25:15.456Z,100575.80
2018-12-10T03:27:44.624Z,100564.94
2018-12-10T03:30:13.590Z,100585.39
2018-12-10T03:32:42.784Z,100589.55
2018-12-10T03:35:11.813Z,100583.16
2018-12-10T03:37:40.785Z,100586.34
2018-12-10T03:40:09.745Z,100569.91
2018-12-10T03:42:38.739Z,100580.65
2018-12-10T03:45:07.641Z,100578.72
2018-12-10T03:47:36.619Z,100584.55
2018-12-10T03:50:07.009Z,100595.45
2018-12-10T03:52:36.042Z,100591.18
2018-12-10T03:55:04.987Z,100598.28
2018-12-10T03:57:33.947Z,100599.53
2018-12-10T04:00:02.930Z,100605.98
2018-12-10T04:02:31.851Z,100602.03
2018-12-10T04:05:00.951Z,100608.58
2018-12-10T04:07:29.883Z,100613.43
2018-12-10T04:09:58.860Z,100604.17
2018-12-10T04:12:27.839Z,100609.73
2018-12-10T04:14:56.797Z,100610.53
2018-12-10T04:17:25.704Z,100617.31
2018-12-10T04:19:54.657Z,100631.19
2018-12-10T04:22:23.564Z,100621.25
2018-12-10T04:24:52.526Z,100629.27
2018-12-10T04:27:21.458Z,100619.73
2018-12-10T04:29:50.404Z,100616.42
2018-12-10T04:32:19.344Z,100612.48
2018-12-10T04:34:48.641Z,100618.88
2018-12-10T04:37:17.552Z,100629.02
2018-12-10T04:39:46.481Z,100639.16
2018-12-10T04:42:15.387Z,100632.23
2018-12-10T04:44:44.361Z,100642.59
2018-12-10T04:47:13.283Z,100651.36
2018-12-10T04:49:42.238Z,100661.14
2018-12-10T04:52:11.171Z,100664.75
2018-12-10T04:54:40.133Z,100670.77
2018-12-10T04:57:09.042Z,100673.61
2018-12-10T04:59:38.005Z,100674.05
2018-12-10T05:02:06.911Z,100675.22
2018-12-10T05:04:35.872Z,100678.61
2018-12-10T05:07:04.775Z,100682.05
2018-12-10T05:09:33.792Z,100677.87
2018-12-10T05:12:02.720Z,100688.73
2018-12-10T05:14:31.639Z,100679.39
2018-12-10T05:17:00.611Z,100682.26
2018-12-10T05:19:29.541Z,100685.13
2018-12-10T05:21:58.532Z,100693.20
2018-12-10T05:24:27.453Z,100698.13
2018-12-10T05:26:56.381Z,100697.21
2018-12-10T05:29:25.280Z,100708.63
2018-12-10T05:31:54.251Z,100708.88
2018-12-10T05:34:23.168Z,100702.30
2018-12-10T05:36:52.171Z,100705.05
2018-12-10T05:39:21.089Z,100712.11
2018-12-10T05:41:50.057Z,100715.16
2018-12-10T05:44:18.965Z,100711.91
2018-12-10T05:46:47.991Z,100716.47
2018-12-10T05:49:17.035Z,100723.13
2018-12-10T05:51:45.989Z,100720.48
2018-12-10T05:54:14.917Z,100724.66
2018-12-10T05:56:43.933Z,100719.73
2018-12-10T05:59:12.872Z,100718.13
2018-12-10T06:01:41.834Z,100730.46
2018-12-10T06:04:10.772Z,100716.02
2018-12-10T06:06:39.752Z,100729.45
2018-12-10T06:09:08.871Z,100731.85
2018-12-10T06:11:37.864Z,100727.31
2018-12-10T06:14:06.768Z,100740.09
2018-12-10T06:16:35.759Z,100732.54
2018-12-10T06:19:04.920Z,100733.13
2018-12-10T06:21:34.199Z,100745.09
2018-12-10T06:24:03.323Z,100749.91
2018-12-10T06:26:32.539Z,100745.05
2018-12-10T06:29:01.491Z,100749.37
2018-12-10T06:31:30.493Z,100756.55
2018-12-10T06:33:59.437Z,100750.86
2018-12-10T06:36:28.382Z,100751.52
2018-12-10T06:38:57.463Z,100752.69
2018-12-10T06:41:26.403Z,100755.34
2018-12-10T06:43:55.398Z,100755.66
2018-12-10T06:46:24.315Z,100759.73
2018-12-10T06:48:53.244Z,100770.89
2018-12-10T06:51:22.169Z,100768.84
2018-12-10T06:53:51.125Z,100773.53
2018-12-10T06:56:20.054Z,100768.91
2018-12-10T06:58:49.011Z,100773.48
2018-12-10T07:01:17.936Z,100774.32
2018-12-10T07:03:50.974Z,100785.16
2018-12-10T07:06:19.932Z,100787.78
2018-12-10T07:08:48.917Z,100794.88
2018-12-10T07:11:17.869Z,100799.53
2018-12-10T07:13:46.856Z,100807.58
2018-12-10T07:16:15.767Z,100807.19
2018-12-10T07:18:44.703Z,100822.83
2018-12-10T07:21:13.624Z,100821.13
2018-12-10T07:23:42.936Z,100807.48
2018-12-10T07:26:12.067Z,100813.36
2018-12-10T07:28:41.042Z,100816.01
2018-12-10T07:31:10.015Z,100823.63
2018-12-10T07:33:38.955Z,100820.69
2018-12-10T07:36:08.071Z,100809.92
2018-12-10T07:38:37.034Z,100815.86
2018-12-10T07:41:06.545Z,100812.45
2018-12-10T07:43:35.807Z,100821.70
2018-12-10T07:46:04.771Z,100821.25
2018-12-10T07:48:33.772Z,100811.52
2018-12-10T07:51:02.977Z,100814.74
2018-12-10T07:53:31.964Z,100821.85
2018-12-10T07:56:00.933Z,100826.63
2018-12-10T07:58:29.940Z,100834.34
2018-12-10T08:00:58.935Z,100843.91
2018-12-10T08:03:28.352Z,100845.24
2018-12-10T08:05:57.384Z,100846.44
2018-12-10T08:08:26.548Z,100839.56
2018-12-10T08:10:55.523Z,100846.00
2018-12-10T08:13:24.467Z,100836.55
2018-12-10T08:15:53.448Z,100843.09
2018-12-10T08:18:22.374Z,100846.66
2018-12-10T08:20:51.717Z,100843.37
2018-12-10T08:23:20.628Z,100854.44
2018-12-10T08:25:50.256Z,100858.91
2018-12-10T08:28:19.165Z,100854.73
2018-12-10T08:30:48.266Z,100853.22
2018-12-10T08:33:17.203Z,100862.20
2018-12-10T08:35:46.184Z,100873.06
2018-12-10T08:38:15.097Z,100865.14
2018-12-10T08:40:44.061Z,100865.80
2018-12-10T08:43:12.994Z,100871.34
2018-12-10T08:45:42.013Z,100869.72
2018-12-10T08:48:11.232Z,100878.73
2018-12-10T08:50:40.234Z,100862.17
2018-12-10T08:53:09.163Z,100867.45
2018-12-10T08:55:38.123Z,100866.20
2018-12-10T08:58:07.033Z,100871.09
2018-12-10T09:00:36.016Z,100872.39
2018-12-10T09:03:05.059Z,100872.98
2018-12-10T09:05:34.020Z,100876.98
2018-12-10T09:08:03.456Z,100881.95
2018-12-10T09:10:34.707Z,100888.84
2018-12-10T09:13:04.069Z,100879.14
2018-12-10T09:15:33.162Z,100880.27
2018-12-10T09:18:02.288Z,100897.11
2018-12-10T09:20:31.305Z,100901.66
2018-12-10T09:23:00.798Z,100910.25
2018-12-10T09:25:29.801Z,100907.19
2018-12-10T09:27:59.067Z,100912.22
2018-12-10T09:30:28.651Z,100914.66
2018-12-10T09:32:58.947Z,100922.83
2018-12-10T09:35:28.061Z,100925.68
2018-12-10T09:37:57.633Z,100923.44
2018-12-10T09:40:26.963Z,100927.20
2018-12-10T09:42:56.188Z,100931.36
2018-12-10T09:45:25.182Z,100927.04
2018-12-10T09:47:54.227Z,100934.21
2018-12-10T09:50:23.142Z,100935.53
2018-12-10T09:52:52.083Z,100935.66
2018-12-10T09:55:20.984Z,100943.60
2018-12-10T09:57:49.926Z,100946.53
2018-12-10T10:00:18.843Z,100955.99
2018-12-10T10:02:47.804Z,100947.38
2018-12-10T10:05:16.693Z,100948.23
2018-12-10T10:07:45.643Z,100948.89
2018-12-10T10:10:14.572Z,100953.27
2018-12-10T10:12:43.575Z,100946.81
2018-12-10T10:15:12.517Z,100945.44
2018-12-10T10:17:41.484Z,100949.41
2018-12-10T10:20:10.456Z,100945.44
2018-12-10T10:22:39.368Z,100941.66
2018-12-10T10:25:08.316Z,100939.64
2018-12-10T10:27:37.220Z,100938.77
2018-12-10T10:30:06.427Z,100938.66
2018-12-10T10:32:35.371Z,100946.89
2018-12-10T10:35:04.360Z,100959.02
2018-12-10T10:37:33.496Z,100942.16
2018-12-10T10:40:04.523Z,100943.86
2018-12-10T10:42:33.469Z,100942.70
2018-12-10T10:45:02.422Z,100941.45
2018-12-10T10:47:31.408Z,100940.71
2018-12-10T10:50:00.336Z,100930.98
2018-12-10T10:52:33.357Z,100931.10
2018-12-10T10:55:00.263Z,100934.48
2018-12-10T10:57:31.319Z,100937.61
2018-12-10T11:00:00.222Z,100935.98
2018-12-10T11:02:34.172Z,100935.49
2018-12-10T11:05:03.123Z,100937.06
2018-12-10T11:07:32.044Z,100930.80
2018-12-10T11:10:01.027Z,100929.06
2018-12-10T11:12:29.961Z,100920.25
2018-12-10T11:14:58.877Z,100920.55
2018-12-10T11:17:27.795Z,100918.02
2018-12-10T11:19:57.773Z,100905.41
2018-12-10T11:22:26.664Z,100909.57
2018-12-10T11:24:55.588Z,100909.68
2018-12-10T11:27:24.526Z,100912.95
2018-12-10T11:29:53.559Z,100888.48
2018-12-10T11:32:22.457Z,100894.58
2018-12-10T11:34:51.473Z,100899.70
2018-12-10T11:37:20.588Z,100889.47
2018-12-10T11:39:49.498Z,100873.95
2018-12-10T11:42:18.451Z,100887.40
2018-12-10T11:44:48.333Z,100869.98
2018-12-10T11:47:17.707Z,100872.61
2018-12-10T11:49:46.671Z,100879.71
2018-12-10T11:52:15.616Z,100889.65
2018-12-10T11:54:44.539Z,100887.20
2018-12-10T11:57:13.495Z,100886.23
2018-12-10T11:59:42.411Z,100896.78
2018-12-10T12:02:11.352Z,100889.45
2018-12-10T12:04:40.277Z,100875.08
2018-12-10T12:07:09.288Z,100881.66
2018-12-10T12:09:38.297Z,100880.30
2018-12-10T12:12:07.297Z,100868.08
2018-12-10T12:14:36.239Z,100874.39
2018-12-10T12:17:05.280Z,100879.69
2018-12-10T12:19:34.823Z,100861.96
2018-12-10T12:22:05.095Z,100864.17
2018-12-10T12:24:34.348Z,100858.18
2018-12-10T12:27:03.348Z,100854.77
2018-12-10T12:29:32.486Z,100850.86
2018-12-10T12:32:01.417Z,100857.22
2018-12-10T12:34:30.907Z,100859.59
2018-12-10T12:36:59.985Z,100854.41
2018-12-10T12:39:28.887Z,100849.45
2018-12-10T12:41:57.848Z,100846.14
2018-12-10T12:44:26.795Z,100838.58
2018-12-10T12:46:55.841Z,100833.36
2018-12-10T12:49:24.743Z,100822.66
2018-12-10T12:51:53.667Z,100829.30
2018-12-10T12:54:22.688Z,100821.70
2018-12-10T12:56:51.612Z,100833.48
2018-12-10T12:59:20.499Z,100828.50
2018-12-10T13:01:49.723Z,100831.34
2018-12-10T13:04:18.767Z,100831.59
2018-12-10T13:06:47.652Z,100844.49
2018-12-10T13:09:21.719Z,100838.81
2018-12-10T13:11:47.565Z,100838.81
2018-12-10T13:14:16.523Z,100831.81
2018-12-10T13:16:49.339Z,100837.50
2018-12-10T13:19:16.375Z,100831.58
2018-12-10T13:21:45.424Z,100826.91
2018-12-10T13:24:14.416Z,100818.53
2018-12-10T13:26:43.355Z,100820.00
2018-12-10T13:29:12.418Z,100819.86
2018-12-10T13:31:41.613Z,100827.20
2018-12-10T13:34:10.628Z,100829.59
2018-12-10T13:36:39.538Z,100819.62
2018-12-10T13:39:08.833Z,100822.53
2018-12-10T13:41:37.792Z,100822.41
2018-12-10T13:44:06.775Z,100814.16
2018-12-10T13:46:35.693Z,100825.86
2018-12-10T13:49:04.653Z,100806.19
2018-12-10T13:51:33.563Z,100812.87
2018-12-10T13:54:02.561Z,100811.19
2018-12-10T13:56:31.513Z,100811.00
2018-12-10T13:59:00.534Z,100804.42
2018-12-10T14:01:29.464Z,100806.73
2018-12-10T14:03:58.844Z,100813.88
2018-12-10T14:06:27.803Z,100807.14
2018-12-10T14:08:56.782Z,100800.69
2018-12-10T14:11:25.714Z,100800.35
2018-12-10T14:13:54.723Z,100804.41
2018-12-10T14:16:23.645Z,100792.80
2018-12-10T14:18:52.695Z,100794.49
2018-12-10T14:21:21.614Z,100796.00
2018-12-10T14:23:50.575Z,100796.95
2018-12-10T14:26:19.510Z,100785.06
2018-12-10T14:28:48.445Z,100791.66
2018-12-10T14:31:17.425Z,100791.66
2018-12-10T14:33:46.385Z,100794.23
2018-12-10T14:36:15.348Z,100795.19
2018-12-10T14:38:44.308Z,100804.14
2018-12-10T14:41:13.362Z,100803.39
2018-12-10T14:43:42.255Z,100797.86
2018-12-10T14:46:11.240Z,100775.48
2018-12-10T14:48:40.167Z,100797.77
2018-12-10T14:51:09.240Z,100794.72
2018-12-10T14:53:38.180Z,100801.62
2018-12-10T14:56:07.107Z,100795.17
2018-12-10T14:58:36.005Z,100792.45
2018-12-10T15:01:04.968Z,100801.34
2018-12-10T15:03:33.885Z,100802.60
2018-12-10T15:06:02.896Z,100801.47
2018-12-10T15:08:31.804Z,100795.75
2018-12-10T15:11:00.760Z,100797.47
2018-12-10T15:13:29.678Z,100809.53
2018-12-10T15:15:58.660Z,100801.91
2018-12-10T15:18:27.603Z,100806.30
2018-12-10T15:20:56.599Z,100809.87
2018-12-10T15:23:25.553Z,100813.71
2018-12-10T15:25:54.480Z,100809.27
2018-12-10T15:28:23.447Z,100823.50
2018-12-10T15:30:52.365Z,100841.41
2018-12-10T15:33:21.976Z,100834.02
2018-12-10T15:35:50.919Z,100837.52
2018-12-10T15:38:19.869Z,100870.31
2018-12-10T15:40:48.840Z,100893.54
2018-12-10T15:43:17.798Z,100901.31
2018-12-10T15:45:46.709Z,100907.55
2018-12-10T15:48:15.649Z,100901.25
2018-12-10T15:50:44.756Z,100897.04
2018-12-10T15:53:14.015Z,100896.53
2018-12-10T15:55:43.220Z,100902.20
2018-12-10T15:58:12.201Z,100893.12
2018-12-10T16:00:41.113Z,100899.77
2018-12-10T16:03:10.268Z,100895.78
2018-12-10T16:05:39.160Z,100896.02
2018-12-10T16:08:08.130Z,100915.48
2018-12-10T16:10:37.028Z,100918.88
2018-12-10T16:13:06.007Z,100913.93
2018-12-10T16:15:34.900Z,100908.83
2018-12-10T16:18:03.950Z,100922.86
2018-12-10T16:20:32.872Z,100911.34
2018-12-10T16:23:01.828Z,100908.41
2018-12-10T16:25:30.738Z,100913.82
2018-12-10T16:27:59.716Z,100911.53
2018-12-10T16:30:28.980Z,100904.45
2018-12-10T16:32:58.186Z,100908.80
2018-12-10T16:35:27.217Z,100914.38
2018-12-10T16:37:56.178Z,100906.64
2018-12-10T16:40:25.246Z,100914.20
2018-12-10T16:42:56.175Z,100912.48
2018-12-10T16:45:25.132Z,100907.20
2018-12-10T16:47:54.079Z,100913.63
2018-12-10T16:50:23.328Z,100910.99
2018-12-10T16:52:52.256Z,100920.72
2018-12-10T16:55:21.180Z,100916.84
2018-12-10T16:57:50.116Z,100922.31
2018-12-10T17:00:19.140Z,100927.25
2018-12-10T17:02:48.086Z,100925.73
2018-12-10T17:05:17.050Z,100931.39
2018-12-10T17:07:46.518Z,100928.80
2018-12-10T17:10:15.475Z,100930.98
2018-12-10T17:12:44.540Z,100934.41
2018-12-10T17:15:13.557Z,100937.72
2018-12-10T17:17:42.568Z,100949.90
2018-12-10T17:20:11.528Z,100949.31
2018-12-10T17:22:40.446Z,100947.16
2018-12-10T17:25:09.703Z,100946.44
2018-12-10T17:27:38.621Z,100947.11
2018-12-10T17:30:08.079Z,100947.86
2018-12-10T17:32:36.998Z,100950.52
2018-12-10T17:35:06.566Z,100955.80
2018-12-10T17:37:35.459Z,100956.73
2018-12-10T17:40:04.616Z,100968.07
2018-12-10T17:42:33.536Z,100964.69
2018-12-10T17:45:02.574Z,100967.35
2018-12-10T17:47:31.566Z,100960.73
2018-12-10T17:50:00.706Z,100972.06
2018-12-10T17:52:29.651Z,100965.63
2018-12-10T17:54:59.411Z,100951.81
2018-12-10T17:57:28.386Z,100950.52
2018-12-10T17:59:57.384Z,100942.39
2018-12-10T18:02:26.372Z,100940.28
2018-12-10T18:04:55.318Z,100938.58
2018-12-10T18:07:24.230Z,100945.39
2018-12-10T18:09:53.278Z,100950.45
2018-12-10T18:12:22.222Z,100949.46
2018-12-10T18:14:51.236Z,100960.74
2018-12-10T18:17:24.696Z,100960.23
2018-12-10T18:19:53.622Z,100955.13
2018-12-10T18:22:22.674Z,100950.21
2018-12-10T18:24:51.602Z,100950.53
2018-12-10T18:27:20.567Z,100962.14
2018-12-10T18:29:49.492Z,100949.94
2018-12-10T18:32:18.528Z,100963.67
2018-12-10T18:34:47.536Z,100955.92
2018-12-10T18:37:20.960Z,100963.82
2018-12-10T18:39:49.983Z,100970.91
2018-12-10T18:42:19.064Z,100973.02
2018-12-10T18:44:48.065Z,100971.84
2018-12-10T18:47:17.125Z,100961.55
2018-12-10T18:49:46.120Z,100960.23
2018-12-10T18:52:15.140Z,100959.89
2018-12-10T18:54:44.226Z,100947.98
2018-12-10T18:57:13.210Z,100939.27
2018-12-10T18:59:42.209Z,100939.30
2018-12-10T19:02:11.251Z,100942.20
2018-12-10T19:04:40.192Z,100936.75
2018-12-10T19:07:09.199Z,100938.09
2018-12-10T19:09:38.179Z,100931.31
2018-12-10T19:12:07.180Z,100931.03
2018-12-10T19:14:36.180Z,100924.39
2018-12-10T19:17:05.803Z,100926.09
2018-12-10T19:19:35.156Z,100924.55
2018-12-10T19:22:04.390Z,100921.46
2018-12-10T19:24:33.627Z,100931.03
2018-12-10T19:27:02.862Z,100931.03
2018-12-10T19:29:32.025Z,100929.16
2018-12-10T19:32:01.319Z,100936.38
2018-12-10T19:34:33.081Z,100922.84
2018-12-10T19:37:02.309Z,100933.64
2018-12-10T19:39:31.683Z,100933.58
2018-12-10T19:42:01.176Z,100930.62
2018-12-10T19:44:30.797Z,100935.50
2018-12-10T19:47:00.433Z,100942.28
2018-12-10T19:49:29.738Z,100930.91
2018-12-10T19:51:59.202Z,100942.19
2018-12-10T19:54:29.227Z,100939.98
2018-12-10T19:56:58.716Z,100926.41
2018-12-10T19:59:27.912Z,100931.95
2018-12-10T20:01:57.160Z,100942.25
2018-12-10T20:04:26.543Z,100946.42
2018-12-10T20:07:00.693Z,100938.02
2018-12-10T20:09:30.164Z,100949.03
2018-12-10T20:11:59.320Z,100953.11
2018-12-10T20:14:28.815Z,100943.48
2018-12-10T20:16:58.160Z,100941.34
2018-12-10T20:19:27.200Z,100948.19
2018-12-10T20:21:56.455Z,100951.89
2018-12-10T20:24:25.578Z,100943.36
2018-12-10T20:26:54.686Z,100950.20
2018-12-10T20:29:24.072Z,100939.80
2018-12-10T20:31:53.567Z,100942.28
2018-12-10T20:34:22.937Z,100937.47
2018-12-10T20:36:52.501Z,100934.33
2018-12-10T20:39:21.794Z,100941.42
2018-12-10T20:41:50.803Z,100939.79
2018-12-10T20:44:20.363Z,100949.50
2018-12-10T20:46:49.591Z,100952.64
2018-12-10T20:49:18.844Z,100955.75
2018-12-10T20:51:48.082Z,100959.27
2018-12-10T20:54:17.409Z,100947.92
2018-12-10T20:56:46.706Z,100935.83
2018-12-10T20:59:16.011Z,100946.24
2018-12-10T21:01:45.248Z,100944.75
2018-12-10T21:04:14.379Z,100939.55
2018-12-10T21:06:43.523Z,100936.41
2018-12-10T21:09:12.708Z,100946.92
2018-12-10T21:11:41.969Z,100954.22
2018-12-10T21:14:11.305Z,100948.33
2018-12-10T21:16:40.740Z,100948.80
2018-12-10T21:19:09.848Z,100954.70
2018-12-10T21:21:39.381Z,100952.29
2018-12-10T21:24:08.963Z,100950.09
2018-12-10T21:26:38.537Z,100953.29
2018-12-10T21:29:07.948Z,100951.33
2018-12-10T21:31:37.212Z,100948.50
2018-12-10T21:34:06.428Z,100958.22
2018-12-10T21:36:35.793Z,100966.44
2018-12-10T21:39:07.673Z,100977.84
2018-12-10T21:41:36.971Z,100976.41
2018-12-10T21:44:06.401Z,100973.66
2018-12-10T21:46:35.780Z,100973.22
2018-12-10T21:49:04.998Z,100973.69
2018-12-10T21:51:34.312Z,100980.87
2018-12-10T21:54:03.524Z,100971.71
2018-12-10T21:56:33.024Z,100975.83
2018-12-10T21:59:02.009Z,100976.80
2018-12-10T22:01:31.005Z,100977.55
2018-12-10T22:04:00.007Z,100963.37
2018-12-10T22:06:28.980Z,100968.92
2018-12-10T22:08:57.924Z,100963.28
2018-12-10T22:11:26.934Z,100965.02
2018-12-10T22:13:55.836Z,100970.75
2018-12-10T22:16:25.738Z,100964.70
2018-12-10T22:18:54.632Z,100959.39
2018-12-10T22:21:23.613Z,100955.48
2018-12-10T22:23:52.624Z,100966.26
2018-12-10T22:26:21.716Z,100968.75
2018-12-10T22:28:51.012Z,100971.86
2018-12-10T22:31:20.172Z,100972.41
2018-12-10T22:33:49.739Z,100973.65
2018-12-10T22:36:18.986Z,100973.01
2018-12-10T22:38:48.215Z,100973.12
2018-12-10T22:41:18.389Z,100969.81
2018-12-10T22:43:47.840Z,100979.92
2018-12-10T22:46:17.649Z,100976.11
2018-12-10T22:48:47.569Z,100962.70
2018-12-10T22:51:16.931Z,100973.29
2018-12-10T22:53:46.176Z,100972.73
2018-12-10T22:56:15.432Z,100975.59
2018-12-10T22:58:44.705Z,100972.39
2018-12-10T23:01:13.964Z,100965.55
2018-12-10T23:03:43.166Z,100964.98
2018-12-10T23:06:12.662Z,100951.98
2018-12-10T23:08:42.217Z,100966.98
2018-12-10T23:11:11.840Z,100954.80
2018-12-10T23:13:41.329Z,100950.50
2018-12-10T23:16:10.332Z,100969.22
2018-12-10T23:18:39.375Z,100959.07
2018-12-10T23:21:08.750Z,100958.80
2018-12-10T23:23:37.734Z,100950.50
2018-12-10T23:26:06.777Z,100964.80
2018-12-10T23:28:35.724Z,100967.52
2018-12-10T23:31:04.683Z,100967.08
2018-12-10T23:33:33.644Z,100960.28
2018-12-10T23:36:02.722Z,100965.67
2018-12-10T23:38:31.699Z,100965.97
2018-12-10T23:41:00.712Z,100969.94
2018-12-10T23:43:29.623Z,100967.17
2018-12-10T23:45:58.600Z,100963.68
2018-12-10T23:48:27.532Z,100970.75
2018-12-10T23:50:56.496Z,100963.39
2018-12-10T23:53:25.411Z,100972.83
2018-12-10T23:55:54.685Z,100970.86
2018-12-10T23:58:23.630Z,100966.95
